Grandview, WA (98930)

8:33 PM PST on December 22, 2014 (GMT -0800)
Grandview | Change Station
CLOSE
Current Station
Personal Weather Station
Location: Grandview, WA
Elevation: 834 ft
Nearby Weather Stations
Active Advisory: Special Statement Active Notice: Record Report

Elev 834 ft 46.25 °N, 119.89 °W | Updated 2 minutes ago

Overcast
Overcast
43.3 °F
Feels Like 43 °F
N
0.0
Wind Variable Wind from ESE
Gusts 0.0 mph

Today
High -- | Low -- °F
--% Chance of Precip.
Yesterday
High -- | Low -- °F
Precip. -- in
7:40 AM 4:16 PM
New Moon, 2% visible
Pressure 30.37 in
Visibility 10.0 miles
Clouds Overcast 11000 ft
Windchill 43 °F
Dew Point 32 °F
Humidity 64%
Rainfall 0.00 in
Snow Depth Not available.
UV 0 out of 12
Pollen 2.30 out of 12
Air Quality Not available.
Flu Activity Not available.
METAR KYKM 230353Z 01003KT 10SM OVC110 08/M01 A3035 RMK AO2 SLP282 T00781011

More Conditions Fewer Conditions

Pressure 30.37 in
Visibility 10.0 miles
Clouds Overcast 11000 ft
Windchill 43 °F
Dew Point 32 °F
Humidity 64%
Rainfall 0.00 in
Snow Depth Not available.
UV 0 out of 12
Pollen 2.30 out of 12
Air Quality Not available.
Flu Activity Not available.
METAR KYKM 230353Z 01003KT 10SM OVC110 08/M01 A3035 RMK AO2 SLP282 T00781011

More Conditions Fewer Conditions

10-Day Weather Forecast

Almanac

Astronomy

Dec. 22, 2014 Rise Set
Actual Time
Civil Twilight
Nautical Twilight
Astronomical Twilight
Moon
Length of Visible Light
Length of Day
Tomorrow will be .
, % of the Moon is Illuminated

Today's Extremes

State Highs State Lows

Community

WunderPhotos

Upload Photos

1,779,778 photos uploaded!

WunderBlogs® & News

Nearby

Air Quality

  Air Quality AQ Index Pollutant
Not available.

Snow Depth

Station Depth Elevation

Earthquake Activity

City Distance Mag. Time & Date
Minimum magnitude displayed is 2.5.

Coastal Water Temperatures

Place Temperature

Nearby Weather Stations